默认 日期 大小 文件数 浏览量 最新下载 xml
lebron磁力链接相关资源由用户搜索指令自动获取,结果来源于网络,本站不存储任何资料,亦不承担任何责任,请于24小时内删除,搜索到73个磁力,用时0ms。
    ... Torres.mp4": 1262721123, "Devon Lebron and Lukas Daken.mp4": ... Martin.mp4": 1099845444, "Devon Lebron, Patrick Grau and Jordan ... Dawson.mp4": 1147922259, "Devon Lebron, Patrick Grau and Louis ... Ricaute.mp4": 1489428736, "Devon Lebron, Patrick Grau and Jonathan ...
创建时间: 2019-03-17 21:51:51 大小:11.14 GB 文件数量:11 热度:7 最近下载:2024-09-06 13:42:01
    {"Salsa - Los Hermanos Lebrón - Fé.mp3": 3435590, "Salsa - Los Hermanos Lebrón - Falta.mp3": 5373701, "Torrent_downloaded_from_Demonoid.com.txt": 47, "Salsa - Los Hermanos Lebrón - La Agonia.mp3": 5879936, "Salsa - Los Hermanos Lebrón - Mi Morena.mp3": ...
创建时间: 2019-03-30 18:15:37 大小:232.78 MB 文件数量:48 热度:7 最近下载:2024-11-14 13:55:02
    ... .mp3": 2903942, "12 Freddie Gibbs - Lebron Sht.mp3": 4050613, "04 Travis ...
创建时间: 2019-04-01 21:31:14 大小:58.39 MB 文件数量:15 热度:8 最近下载:2025-08-15 17:57:01
    {"Front.jpg": 45044, "04 - New Era.mp3": 8116148, "08 - Just Us.mp3": 9501682, "02 - Red Hook.mp3": 9921733, "09 - Spotlight.mp3": 9563335, "01 - Shift Change.mp3": 8957300, "03 - For the Love.mp3": 11113970, "05 - Her Hazel Eyes.mp3": 11611345, "06 - ...
创建时间: 2019-04-16 20:29:27 大小:104.57 MB 文件数量:13 热度:4 最近下载:2022-04-14 05:45:35
    {"Lil Dez.mpg": 29444096, "Jump Car.mpg": 60532740, "Mrs Lewis.mpg": 115410948, "MVP's Chalk.mpg": 116449284, "Three Rings.mpg": 70965248, "Unstoppable Game Tape.mpg": 115419140, "Babysit Mrs. Lewis' son Lil Dez.mpg": 76904448}
创建时间: 2019-05-06 02:52:20 大小:558.02 MB 文件数量:7 热度:5 最近下载:2025-05-14 09:52:01
    {"MODELS.jpg": 63894, "2467-set-full.jpg": 92367, "2495-set-full.jpg": 89514, "[Staxus] Fucked By a Big Black Cock.mpg": 712671232, "Another-of-our-big-black-gay-cocks-for-a-twink-ass-1.jpg": 169696, "Another-of-our-big-black-gay-cocks-for-a-twink-ass-2. ...
创建时间: 2019-08-26 16:45:42 大小:680.44 MB 文件数量:8 热度:11 最近下载:2025-07-01 00:22:02
    {"free audiobook version.txt": 534, "The Laws of Trading by Agustin Lebron.epub": 1055963}
创建时间: 2019-08-27 00:08:44 大小:1.01 MB 文件数量:2 热度:5 最近下载:2024-08-29 07:31:01
    {"RARBG.com.txt": 34, "Jimmy.Fallon.2015.07.14.LeBron.James.720p.HDTV.x264-aAF.mkv": 1104373245, "jimmy.fallon.2015.07.14.lebron.james.720p.hdtv.x264-aaf.nfo": 3154}
创建时间: 2019-12-08 06:05:10 大小:1.03 GB 文件数量:3 热度:4 最近下载:2023-12-27 20:17:04
    {"RARBG.com.txt": 34, "The.Daily.Show.2016.08.17.LeBron.James.720p.CC.WEBRip.AAC2.0.x264-BTW.mkv": 406011411}
创建时间: 2020-04-11 10:26:01 大小:387.2 MB 文件数量:2 热度:4 最近下载:2023-12-30 14:32:03
    {"RARBG.com.txt": 34, "becoming.2014.s01e01.lebron.james.hdtv.x264-w4f.mp4": 215430641, "becoming.2014.s01e01.lebron.james.hdtv.x264-w4f.nfo": 6653}
创建时间: 2020-06-05 03:25:02 大小:205.46 MB 文件数量:3 热度:3 最近下载:2022-04-13 06:48:33
    ... 28817725, "07. LeBron - Undeniable.flac": 30002901, "08. LeBron - Green Light ... .flac": 32810720, "10. LeBron - It Feels Different.flac": ... 38582539, "06. LeBron, Anthony Saunders - Let Me ... Ways.flac": 34030146, "2019 Lebron - Undeniable {Trippin 'n Rhythm ...
创建时间: 2020-06-29 18:48:49 大小:301.27 MB 文件数量:12 热度:2 最近下载:2021-06-17 16:25:58
    ... LeBron - Shades.flac": 30546928, "04. LeBron - Kinetic.flac": 27948102, "06. LeBron ... .flac": 28260827, "08. LeBron - Remember When.flac": 26496262 ... ": 28700520, "02. LeBron - Double or Nothing.flac ... ": 32556474, "2013 LeBron - Shades {Trippin 'n ...
创建时间: 2020-07-24 20:39:14 大小:276.15 MB 文件数量:12 热度:2 最近下载:2023-12-24 21:52:04
    ... Eyes.flac": 27726600, "06. LeBron - Never Say Never.flac": ... Just Us.flac": 23386775, "09. LeBron, Julian Vaughn - Spotlight.flac": ... 28706732, "03. LeBron, Keith Fluitt - For the Love ... Sing.flac": 25124219, "2015 LeBron - New Era {Trippin 'n ...
创建时间: 2020-08-02 21:46:12 大小:292.61 MB 文件数量:13 热度:2 最近下载:2023-12-25 15:58:06
    {"RARBG.com.txt": 34, "becoming.2014.s01e01.lebron.james.720p.hdtv.x264-w4f.mkv": 710681997, "becoming.2014.s01e01.lebron.james.720p.hdtv.x264-w4f.nfo": 6655}
创建时间: 2020-08-28 06:02:22 大小:677.77 MB 文件数量:3 热度:3 最近下载:2023-12-28 17:00:26
    ... .Mind.of.Kevin.Durant.S01E02.LeBron.James.and.Anthony.Davis.480p ... .Mind.of.Kevin.Durant.S01E02.LeBron.James.and.Anthony.Davis.480p ...
创建时间: 2020-11-05 11:34:28 大小:126.3 MB 文件数量:6 热度:6 最近下载:2024-12-03 10:44:02
    {"foo.torrent": 122, "__ia_thumb.jpg": 9082, "foo_torrent.txt": 102, "Saturday Night Live S33E01 - Lebron James.mp4": 739722705, "saturday-night-live-s-33-e-01-lebron-james_meta.xml": 1099, "saturday-night-live-s-33-e-01-lebron-james_meta.sqlite": 11264}
创建时间: 2021-02-14 19:17:14 大小:705.48 MB 文件数量:6 热度:3 最近下载:2025-07-05 08:18:01
    ... Combined!-Rh26J5wVigQ.mp4": 139117099, "LeBron James & Kyrie Irving Full Highlights ... LEGENDARY Finals!-8qiclJ9vqmw.mp4": 91662685, "LeBron James Full Highlights 2015 Playoffs ... Combined!-vvWRPVqSBIk.mp4": 210204054, "LeBron James Full Highlights 2015 Playoffs ...
创建时间: 2021-05-02 21:50:43 大小:26.85 GB 文件数量:198 热度:12 最近下载:2025-06-19 13:05:01
    {"free audiobook version.txt": 1015, "LeBron, Inc._ The Making of a Billion-Dollar Athlete by Brian Windhorst.epub": 17476462}
创建时间: 2021-06-10 10:16:57 大小:16.67 MB 文件数量:2 热度:6 最近下载:2025-08-29 20:31:02
    {"[TGx]Downloaded from torrentgalaxy.to .txt": 718, "Jimmy.Kimmel.2021.07.13.LeBron.James.720p.WEB.h264-KOGi.mkv": 888008980, "jimmy.kimmel.2021.07.13.lebron.james.720p.web.h264-kogi.nfo": 4698}
创建时间: 2021-07-16 16:43:21 大小:846.88 MB 文件数量:3 热度:5 最近下载:2025-03-11 19:33:02
    {"RARBG.txt": 30, "RARBG_DO_NOT_MIRROR.exe": 99, "Jimmy.Kimmel.2021.07.13.LeBron.James.720p.WEB.h264-KOGi.mkv": 888008980, "jimmy.kimmel.2021.07.13.lebron.james.720p.web.h264-kogi.nfo": 4698}
创建时间: 2021-07-17 20:06:33 大小:846.88 MB 文件数量:4 热度:3 最近下载:2025-02-17 03:56:05